Time;durP1;ratioP1;P1;durP2;ratioP2;P2;SDS_P1;SDS_P2;PMS_P1;PMS_P2;Temp;Humidity;BMP_temperature;BMP_pressure;BME280_temperature;BME280_humidity;BME280_pressure;Samples;Min_cycle;Max_cycle;Signal;HPM_P1;HPM_P2
2022/11/01 00:00:48;;;;;;;1999.90;999.90;;;18.30;1.00;;;;;;5138284;27;20042;-89
2022/11/01 00:03:13;;;;;;;1999.90;999.90;;;18.30;1.00;;;;;;5124006;27;20058;-91
2022/11/01 00:05:39;;;;;;;1999.90;999.90;;;18.30;1.00;;;;;;5098683;27;20042;-90
2022/11/01 00:08:05;;;;;;;1999.90;999.90;;;18.40;1.00;;;;;;5144728;27;20047;-90
2022/11/01 00:10:31;;;;;;;1999.90;999.90;;;18.40;99.90;;;;;;5128385;27;20060;-88
2022/11/01 00:12:56;;;;;;;1999.90;999.90;;;18.40;99.90;;;;;;5146976;27;20092;-91
2022/11/01 00:15:22;;;;;;;1999.90;999.90;;;18.40;99.90;;;;;;5111402;27;20054;-91
2022/11/01 00:17:48;;;;;;;1999.90;999.90;;;18.30;99.90;;;;;;5124094;27;20129;-91
2022/11/01 00:20:14;;;;;;;1999.90;999.90;;;18.30;99.90;;;;;;5127989;27;20111;-84
2022/11/01 00:22:39;;;;;;;1999.90;999.90;;;18.20;99.90;;;;;;5115230;27;20092;-89
2022/11/01 00:25:05;;;;;;;1999.90;999.90;;;18.20;99.90;;;;;;5151749;27;20070;-90
2022/11/01 00:27:31;;;;;;;1999.90;999.90;;;18.20;99.90;;;;;;5129923;27;20506;-89
2022/11/01 00:29:57;;;;;;;1999.90;999.90;;;18.20;99.90;;;;;;5133926;27;20058;-88
2022/11/01 00:32:23;;;;;;;1999.90;999.90;;;18.30;99.90;;;;;;5115371;27;20117;-89
2022/11/01 00:34:49;;;;;;;1999.90;999.90;;;18.30;99.90;;;;;;5117799;27;20055;-89
2022/11/01 00:37:14;;;;;;;1999.90;999.90;;;18.30;99.90;;;;;;5149247;27;20054;-87
2022/11/01 00:39:40;;;;;;;1999.90;999.90;;;18.30;99.90;;;;;;5139511;27;20038;-88
2022/11/01 00:42:06;;;;;;;1999.90;999.90;;;18.40;99.90;;;;;;5152191;27;20043;-90
2022/11/01 00:44:32;;;;;;;1999.90;999.90;;;18.40;99.90;;;;;;5151386;27;20039;-87
2022/11/01 00:46:57;;;;;;;1999.90;999.90;;;18.50;99.90;;;;;;5129239;27;20043;-90
2022/11/01 00:49:23;;;;;;;1999.90;999.90;;;18.40;99.90;;;;;;5152963;27;20043;-90
2022/11/01 00:51:49;;;;;;;1999.90;999.90;;;18.50;99.90;;;;;;5151032;27;20042;-88
2022/11/01 00:54:14;;;;;;;1999.90;999.90;;;18.50;99.90;;;;;;5142458;27;20071;-90
2022/11/01 00:56:40;;;;;;;1999.90;999.90;;;18.50;99.90;;;;;;5122830;27;20040;-92
2022/11/01 00:59:06;;;;;;;1999.90;999.90;;;18.50;99.90;;;;;;5137499;27;20046;-91
2022/11/01 01:01:31;;;;;;;1999.90;999.90;;;18.50;99.90;;;;;;5117147;27;20039;-87
2022/11/01 01:03:57;;;;;;;1999.90;999.90;;;18.50;99.90;;;;;;5109817;27;20045;-91
2022/11/01 01:06:23;;;;;;;1999.90;999.90;;;18.50;99.90;;;;;;5142448;27;20127;-85
2022/11/01 01:08:48;;;;;;;1999.90;999.90;;;18.60;99.90;;;;;;5105041;27;20147;-91
2022/11/01 01:11:14;;;;;;;1999.90;999.90;;;18.60;99.90;;;;;;5137720;27;20049;-90
2022/11/01 01:13:40;;;;;;;1999.90;999.90;;;18.60;99.90;;;;;;5114360;27;20118;-90
2022/11/01 01:16:08;;;;;;;1999.90;999.90;;;18.60;99.90;;;;;;5138641;27;20116;-90
2022/11/01 01:18:34;;;;;;;1999.90;999.90;;;18.60;99.90;;;;;;5130862;27;20047;-83
2022/11/01 01:21:01;;;;;;;1999.90;999.90;;;18.60;99.90;;;;;;5126423;27;20042;-90
2022/11/01 01:23:26;;;;;;;1999.90;999.90;;;18.60;99.90;;;;;;5133102;27;20043;-89
2022/11/01 01:25:52;;;;;;;1999.90;999.90;;;18.60;99.90;;;;;;5136863;27;20552;-89
2022/11/01 01:28:18;;;;;;;1999.90;999.90;;;18.70;99.90;;;;;;5124041;27;20038;-91
2022/11/01 01:30:43;;;;;;;1999.90;999.90;;;18.60;99.90;;;;;;5126243;27;20205;-89
2022/11/01 01:33:09;;;;;;;1999.90;999.90;;;18.50;99.90;;;;;;5139390;27;20111;-90
2022/11/01 01:35:36;;;;;;;1999.90;999.90;;;18.30;99.90;;;;;;5134191;27;20049;-85
2022/11/01 01:38:02;;;;;;;1999.90;999.90;;;18.20;99.90;;;;;;5136222;27;20047;-94
2022/11/01 01:40:27;;;;;;;1999.90;999.90;;;18.00;99.90;;;;;;5148203;27;20344;-89
2022/11/01 01:42:53;;;;;;;1999.90;999.90;;;18.00;99.90;;;;;;5134472;27;20047;-91
2022/11/01 01:45:27;;;;;;;1999.90;999.90;;;17.90;1.00;;;;;;5118642;27;20110;-91
2022/11/01 01:47:54;;;;;;;1999.90;999.90;;;17.90;1.00;;;;;;5113636;27;20383;-89
2022/11/01 01:50:31;;;;;;;;;;;17.90;1.00;;;;;;5137439;27;20038;-91
2022/11/01 01:53:05;;;;;;;1999.90;999.90;;;17.80;1.00;;;;;;5139804;27;19946;-89
2022/11/01 01:55:46;;;;;;;1999.90;999.90;;;17.90;1.00;;;;;;5140906;27;20032;-89
2022/11/01 01:58:15;;;;;;;1999.90;999.90;;;17.90;1.00;;;;;;5119702;27;20082;-90
2022/11/01 02:00:42;;;;;;;1999.90;999.90;;;17.90;1.00;;;;;;5120674;28;20046;-91
2022/11/01 02:03:08;;;;;;;1999.90;999.90;;;17.90;1.00;;;;;;5127536;27;20386;-89
2022/11/01 02:05:57;;;;;;;1999.90;999.90;;;17.90;1.00;;;;;;5151962;27;20039;-90
2022/11/01 02:08:26;;;;;;;1999.90;999.90;;;18.00;1.00;;;;;;5124052;27;20054;-88
2022/11/01 02:10:59;;;;;;;1999.90;999.90;;;18.00;1.00;;;;;;5131120;27;20042;-89
2022/11/01 02:13:25;;;;;;;1999.90;999.90;;;18.00;1.00;;;;;;5155360;27;20064;-87
2022/11/01 02:16:09;;;;;;;1999.90;999.90;;;18.00;1.00;;;;;;5140645;27;20059;-88
2022/11/01 02:18:52;;;;;;;1999.90;999.90;;;18.00;99.90;;;;;;5145119;27;20050;-88
2022/11/01 02:21:45;;;;;;;1999.90;999.90;;;18.10;99.90;;;;;;5124163;27;20046;-91
2022/11/01 02:24:48;;;;;;;1999.90;999.90;;;18.10;99.90;;;;;;5141318;27;20035;-92
2022/11/01 02:27:24;;;;;;;1999.90;999.90;;;18.00;1.00;;;;;;5140841;27;20123;-90
2022/11/01 02:30:06;;;;;;;1999.90;999.90;;;17.80;1.00;;;;;;5144585;27;20518;-91
2022/11/01 02:32:50;;;;;;;1999.90;999.90;;;17.70;91.50;;;;;;5130225;27;20046;-91
2022/11/01 02:35:39;;;;;;;1999.90;999.90;;;17.60;99.90;;;;;;5153070;27;20479;-88
2022/11/01 02:38:35;;;;;;;1999.90;999.90;;;17.50;99.90;;;;;;5127802;27;20082;-91
2022/11/01 02:41:17;;;;;;;1999.90;999.90;;;17.50;99.90;;;;;;5117212;27;20040;-92
2022/11/01 02:43:45;;;;;;;1999.90;999.90;;;17.60;99.90;;;;;;5120986;27;20118;-91
2022/11/01 02:48:57;;;;;;;1999.90;999.90;;;17.70;99.90;;;;;;5140655;27;20047;-91
2022/11/01 02:51:24;;;;;;;1999.90;999.90;;;17.70;99.90;;;;;;5138413;27;20043;-88
2022/11/01 02:53:50;;;;;;;1999.90;999.90;;;17.70;96.50;;;;;;5119851;27;20042;-90
2022/11/01 02:56:17;;;;;;;1999.90;999.90;;;17.70;92.30;;;;;;5141732;27;20046;-91
2022/11/01 02:58:45;;;;;;;1999.90;999.90;;;17.80;24.70;;;;;;5134359;27;20087;-79
2022/11/01 03:01:15;;;;;;;1999.90;999.90;;;17.80;8.90;;;;;;5137377;27;20121;-79
2022/11/01 03:03:43;;;;;;;1999.90;999.90;;;17.80;13.60;;;;;;5138025;27;20057;-80
2022/11/01 03:06:20;;;;;;;1999.90;999.90;;;17.90;1.00;;;;;;5155608;27;20114;-80
2022/11/01 03:08:53;;;;;;;1999.90;999.90;;;17.90;1.00;;;;;;5155905;27;20043;-80
2022/11/01 03:11:26;;;;;;;1999.90;999.90;;;17.90;1.00;;;;;;5155841;27;20069;-81
2022/11/01 03:13:59;;;;;;;1999.90;999.90;;;17.90;1.00;;;;;;5154589;27;20417;-80
2022/11/01 03:16:34;;;;;;;1999.90;999.90;;;18.70;1.00;;;;;;5156329;27;20091;-80
2022/11/01 03:19:38;;;;;;;1999.90;999.90;;;18.00;1.00;;;;;;5155432;27;20042;-80
2022/11/01 03:22:16;;;;;;;1999.90;999.90;;;18.00;1.00;;;;;;5113010;27;20046;-80
2022/11/01 03:24:47;;;;;;;1999.90;999.90;;;18.00;1.00;;;;;;5136677;27;20039;-80
2022/11/01 03:27:24;;;;;;;1999.90;999.90;;;18.00;1.00;;;;;;5155764;27;20042;-81
2022/11/01 03:30:01;;;;;;;1999.90;999.90;;;18.10;1.00;;;;;;5119779;27;20039;-82
2022/11/01 03:32:31;;;;;;;1999.90;999.90;;;18.10;1.00;;;;;;5120384;27;20043;-83
2022/11/01 03:35:00;;;;;;;1999.90;999.90;;;18.10;1.00;;;;;;5154800;27;20031;-80
2022/11/01 03:37:27;;;;;;;1999.90;999.90;;;18.20;1.00;;;;;;5137276;27;20406;-81
2022/11/01 03:39:54;;;;;;;1999.90;999.90;;;18.20;1.00;;;;;;5154893;27;20047;-80
2022/11/01 03:42:22;;;;;;;1999.90;999.90;;;18.20;1.00;;;;;;5137006;27;20054;-81
2022/11/01 03:45:02;;;;;;;1999.90;999.90;;;18.30;1.00;;;;;;5136908;27;20339;-81
2022/11/01 03:47:28;;;;;;;1999.90;999.90;;;18.30;1.00;;;;;;5137290;27;20054;-81
2022/11/01 03:50:17;;;;;;;1999.90;999.90;;;18.20;1.00;;;;;;5153817;27;20043;-81
2022/11/01 03:52:43;;;;;;;1999.90;999.90;;;18.20;1.00;;;;;;5137021;27;20047;-81
2022/11/01 03:55:18;;;;;;;1999.90;999.90;;;18.20;1.00;;;;;;5135778;27;20486;-82
2022/11/01 03:57:51;;;;;;;1999.90;999.90;;;18.20;1.00;;;;;;5155492;27;20049;-80
2022/11/01 04:00:19;;;;;;;1999.90;999.90;;;18.20;1.00;;;;;;5135665;27;20087;-80
2022/11/01 04:02:46;;;;;;;1999.90;999.90;;;18.10;1.00;;;;;;5136559;27;20059;-81
2022/11/01 04:05:12;;;;;;;1999.90;999.90;;;18.20;1.00;;;;;;5153822;27;20065;-81
2022/11/01 04:07:38;;;;;;;1999.90;999.90;;;18.20;6.80;;;;;;5136770;27;20482;-81
2022/11/01 04:10:05;;;;;;;1999.90;999.90;;;18.30;6.90;;;;;;5154296;27;20038;-82
2022/11/01 04:12:31;;;;;;;1999.90;999.90;;;18.20;18.90;;;;;;5135706;27;20077;-84
2022/11/01 04:20:32;;;;;;;1999.90;999.90;;;18.40;53.80;;;;;;5153988;27;20114;-82
2022/11/01 04:23:05;;;;;;;1999.90;999.90;;;18.70;39.40;;;;;;5136415;27;20038;-81
2022/11/01 04:25:32;;;;;;;1999.90;999.90;;;18.60;28.10;;;;;;5119168;27;20069;-82
2022/11/01 04:27:59;;;;;;;1999.90;999.90;;;18.60;8.70;;;;;;5154428;27;20034;-82
2022/11/01 04:30:27;;;;;;;1999.90;999.90;;;18.70;10.80;;;;;;5136029;27;20042;-82
2022/11/01 04:32:53;;;;;;;1999.90;999.90;;;18.70;1.00;;;;;;5136021;27;20045;-81
2022/11/01 04:35:19;;;;;;;1999.90;999.90;;;18.70;6.10;;;;;;5135111;27;20046;-82
2022/11/01 04:37:45;;;;;;;1999.90;999.90;;;18.70;9.40;;;;;;5135783;27;20366;-83
2022/11/01 04:40:14;;;;;;;1999.90;999.90;;;18.70;15.30;;;;;;5153780;27;20038;-88
2022/11/01 04:42:40;;;;;;;1999.90;999.90;;;18.70;14.40;;;;;;5154343;27;20046;-81
2022/11/01 04:45:07;;;;;;;1999.90;999.90;;;18.80;23.50;;;;;;5118339;27;20047;-81
2022/11/01 04:47:33;;;;;;;1999.90;999.90;;;18.80;29.80;;;;;;5136102;27;20117;-82
2022/11/01 04:49:59;;;;;;;1999.90;999.90;;;18.80;32.50;;;;;;5153633;27;20039;-82
2022/11/01 04:52:26;;;;;;;1999.90;999.90;;;18.80;24.30;;;;;;5153790;27;20479;-82
2022/11/01 04:54:52;;;;;;;1999.90;999.90;;;18.90;21.70;;;;;;5134796;27;20304;-83
2022/11/01 04:57:23;;;;;;;1999.90;999.90;;;18.90;18.50;;;;;;5135304;27;20051;-81
2022/11/01 04:59:54;;;;;;;1999.90;999.90;;;18.90;2.70;;;;;;5118667;27;20043;-81
2022/11/01 05:02:21;;;;;;;1999.90;999.90;;;18.90;1.00;;;;;;5134863;27;20050;-81
2022/11/01 05:04:47;;;;;;;1999.90;999.90;;;18.90;4.70;;;;;;5152502;27;20494;-82
2022/11/01 05:07:13;;;;;;;1999.90;999.90;;;18.90;6.80;;;;;;5134493;27;20102;-83
2022/11/01 05:09:39;;;;;;;1999.90;999.90;;;18.90;1.00;;;;;;5153050;27;20070;-83
2022/11/01 05:12:06;;;;;;;1999.90;999.90;;;18.90;7.60;;;;;;5118021;27;20046;-89
2022/11/01 05:14:32;;;;;;;1999.90;999.90;;;17.80;19.70;;;;;;5153097;27;20051;-80
2022/11/01 05:16:58;;;;;;;1999.90;999.90;;;18.90;36.00;;;;;;5135869;27;20057;-81
2022/11/01 05:19:24;;;;;;;1999.90;999.90;;;18.90;41.30;;;;;;5153769;27;20524;-80
2022/11/01 05:21:50;;;;;;;1999.90;999.90;;;18.90;32.70;;;;;;5153089;27;20132;-82
2022/11/01 05:24:16;;;;;;;1999.90;999.90;;;18.90;40.40;;;;;;5134951;27;20136;-82
2022/11/01 05:26:41;;;;;;;1999.90;999.90;;;18.90;44.30;;;;;;5153477;27;20131;-80
2022/11/01 05:29:07;;;;;;;1999.90;999.90;;;19.00;42.30;;;;;;5134800;27;20335;-88
2022/11/01 05:31:33;;;;;;;1999.90;999.90;;;19.00;29.00;;;;;;5153712;27;20467;-80
2022/11/01 05:33:59;;;;;;;1999.90;999.90;;;18.90;36.30;;;;;;5117044;27;20047;-86
2022/11/01 05:36:24;;;;;;;1999.90;999.90;;;19.00;18.90;;;;;;5132092;27;20053;-81
2022/11/01 05:38:50;;;;;;;1999.90;999.90;;;19.00;17.10;;;;;;5133938;27;20421;-81
2022/11/01 05:41:16;;;;;;;1999.90;999.90;;;19.00;8.40;;;;;;5135065;27;20055;-81
2022/11/01 05:43:41;;;;;;;1999.90;999.90;;;19.00;1.00;;;;;;5135438;27;20043;-80
2022/11/01 05:46:07;;;;;;;1999.90;999.90;;;19.00;1.00;;;;;;5117418;27;20116;-81
2022/11/01 05:48:33;;;;;;;1999.90;999.90;;;19.10;1.00;;;;;;5134699;27;20133;-82
2022/11/01 05:50:59;;;;;;;1999.90;999.90;;;19.10;1.00;;;;;;5134645;27;20043;-82
2022/11/01 05:53:25;;;;;;;1999.90;999.90;;;19.10;99.90;;;;;;5134405;27;20047;-79
2022/11/01 05:55:55;;;;;;;1999.90;999.90;;;19.10;99.90;;;;;;5152797;27;20043;-81
2022/11/01 05:58:20;;;;;;;1999.90;999.90;;;19.10;99.90;;;;;;5153514;27;20054;-82
2022/11/01 06:00:46;;;;;;;1999.90;999.90;;;19.10;99.90;;;;;;5117957;27;20046;-83
2022/11/01 06:03:12;;;;;;;1999.90;999.90;;;18.90;99.90;;;;;;5117960;27;20051;-90
2022/11/01 06:05:38;;;;;;;1999.90;999.90;;;18.90;95.70;;;;;;5117519;27;20054;-81
2022/11/01 06:08:04;;;;;;;1999.90;999.90;;;18.70;99.90;;;;;;5153981;27;20053;-83
2022/11/01 06:10:31;;;;;;;1999.90;999.90;;;18.50;99.90;;;;;;5134693;27;20121;-86
2022/11/01 06:12:57;;;;;;;1999.90;999.90;;;18.40;99.90;;;;;;5117819;27;20053;-82
2022/11/01 06:15:23;;;;;;;1999.90;999.90;;;18.30;99.90;;;;;;5100069;27;20054;-82
2022/11/01 06:18:03;;;;;;;1999.90;999.90;;;18.30;96.30;;;;;;5134468;27;20055;-82
2022/11/01 06:20:31;;;;;;;1999.90;999.90;;;18.40;90.10;;;;;;5117360;27;20429;-84
2022/11/01 06:23:00;;;;;;;1999.90;999.90;;;19.30;97.10;;;;;;5134504;27;20042;-82
2022/11/01 06:25:26;;;;;;;1999.90;999.90;;;18.10;94.50;;;;;;5133393;27;20532;-82
2022/11/01 06:27:53;;;;;;;1999.90;999.90;;;18.00;43.30;;;;;;5116679;27;20045;-82
2022/11/01 06:30:19;;;;;;;1999.90;999.90;;;17.80;44.00;;;;;;5153041;27;20072;-90
2022/11/01 06:32:45;;;;;;;1999.90;999.90;;;17.70;53.70;;;;;;5153331;27;20501;-84
2022/11/01 06:35:11;;;;;;;1999.90;999.90;;;17.50;47.70;;;;;;5117590;27;20042;-84
2022/11/01 06:37:43;;;;;;;1999.90;999.90;;;17.40;15.30;;;;;;5152923;27;20042;-86
2022/11/01 06:40:09;;;;;;;1999.90;999.90;;;17.20;21.40;;;;;;5153702;27;20103;-86
2022/11/01 06:42:35;;;;;;;1999.90;999.90;;;17.00;5.20;;;;;;5117472;27;20046;-84
2022/11/01 06:45:01;;;;;;;1999.90;999.90;;;16.90;28.10;;;;;;5134636;27;20046;-85
2022/11/01 06:47:26;;;;;;;1999.90;999.90;;;16.80;39.60;;;;;;5153047;27;20042;-85
2022/11/01 06:49:52;;;;;;;1999.90;999.90;;;16.80;1.00;;;;;;5119918;27;20057;-85
2022/11/01 06:52:18;;;;;;;1999.90;999.90;;;16.70;24.40;;;;;;5138665;27;20039;-85
2022/11/01 06:54:43;;;;;;;1999.90;999.90;;;16.70;5.10;;;;;;5137979;27;20046;-85
2022/11/01 06:57:09;;;;;;;1999.90;999.90;;;16.70;1.00;;;;;;5121626;27;20042;-83
2022/11/01 06:59:35;;;;;;;1999.90;999.90;;;16.60;1.00;;;;;;5156475;27;20577;-83
2022/11/01 07:02:00;;;;;;;1999.90;999.90;;;16.60;1.00;;;;;;5137849;27;20042;-84
2022/11/01 07:04:28;;;;;;;1999.90;999.90;;;16.60;12.20;;;;;;5137651;27;20046;-84
2022/11/01 07:06:53;;;;;;;1999.90;999.90;;;16.60;1.00;;;;;;5137802;27;20086;-85
2022/11/01 07:09:19;;;;;;;1999.90;999.90;;;16.60;4.80;;;;;;5138150;27;20131;-84
2022/11/01 07:11:45;;;;;;;1999.90;999.90;;;16.60;1.00;;;;;;5120523;27;20151;-83
2022/11/01 07:14:11;;;;;;;1999.90;999.90;;;16.70;1.00;;;;;;5156430;27;20039;-86
2022/11/01 07:16:37;;;;;;;1999.90;999.90;;;16.80;1.00;;;;;;5120657;27;20057;-86
2022/11/01 07:19:03;;;;;;;1999.90;999.90;;;16.60;1.00;;;;;;5121097;27;20050;-85
2022/11/01 07:21:32;;;;;;;1999.90;999.90;;;16.50;1.00;;;;;;5120332;27;20050;-85
2022/11/01 07:23:58;;;;;;;1999.90;999.90;;;16.50;1.00;;;;;;5156658;27;20395;-86
2022/11/01 07:26:23;;;;;;;1999.90;999.90;;;16.60;1.00;;;;;;5138161;27;20043;-85
2022/11/01 07:28:49;;;;;;;1999.90;999.90;;;16.60;1.00;;;;;;5155955;27;20311;-85
2022/11/01 07:31:15;;;;;;;1999.90;999.90;;;16.70;1.00;;;;;;5103898;27;20038;-85
2022/11/01 07:33:40;;;;;;;1999.90;999.90;;;16.60;1.00;;;;;;5137600;27;20095;-85
2022/11/01 07:36:06;;;;;;;1999.90;999.90;;;16.50;1.00;;;;;;5137627;27;20471;-85
2022/11/01 07:38:32;;;;;;;1999.90;999.90;;;16.50;1.00;;;;;;5137013;27;20046;-87
2022/11/01 07:40:58;;;;;;;1999.90;999.90;;;16.60;1.00;;;;;;5136926;27;20045;-89
2022/11/01 07:43:27;;;;;;;1999.90;999.90;;;16.60;1.00;;;;;;5137737;27;20129;-86
2022/11/01 07:45:57;;;;;;;1999.90;999.90;;;16.80;1.00;;;;;;5155969;27;20043;-85
2022/11/01 07:48:22;;;;;;;1999.90;999.90;;;16.70;1.00;;;;;;5137719;27;20046;-84
2022/11/01 07:50:48;;;;;;;1999.90;999.90;;;16.80;1.00;;;;;;5136939;27;20095;-83
2022/11/01 07:53:18;;;;;;;1999.90;999.90;;;16.70;1.00;;;;;;5120266;27;20521;-84
2022/11/01 07:55:45;;;;;;;1999.90;999.90;;;16.80;1.00;;;;;;5155902;27;20035;-84
2022/11/01 07:58:12;;;;;;;1999.90;999.90;;;16.80;1.00;;;;;;5137507;27;20043;-85
2022/11/01 08:00:39;;;;;;;1999.90;999.90;;;17.00;51.60;;;;;;5136580;27;20129;-84
2022/11/01 08:03:13;;;;;;;1999.90;999.90;;;17.10;30.00;;;;;;5136941;27;20128;-84
2022/11/01 08:05:40;;;;;;;1999.90;999.90;;;16.90;59.60;;;;;;5136602;27;20043;-83
2022/11/01 08:08:06;;;;;;;1999.90;999.90;;;16.70;88.90;;;;;;5119855;27;20062;-83
2022/11/01 08:10:32;;;;;;;1999.90;999.90;;;16.80;60.00;;;;;;5154823;27;20057;-85
2022/11/01 08:13:24;;;;;;;1999.90;999.90;;;16.80;82.20;;;;;;5155615;27;20042;-83
2022/11/01 08:15:52;;;;;;;1999.90;999.90;;;16.80;55.70;;;;;;5132104;27;20394;-82
2022/11/01 08:18:21;;;;;;;1999.90;999.90;;;17.30;35.90;;;;;;5155509;27;20047;-82
2022/11/01 08:20:47;;;;;;;1999.90;999.90;;;17.00;5.20;;;;;;5154276;27;20082;-81
2022/11/01 08:23:13;;;;;;;1999.90;999.90;;;16.90;7.00;;;;;;5137099;27;20082;-84
2022/11/01 08:25:39;;;;;;;1999.90;999.90;;;16.80;1.00;;;;;;5154864;27;20046;-85
2022/11/01 08:28:08;;;;;;;1999.90;999.90;;;16.70;1.00;;;;;;5136586;27;20078;-85
2022/11/01 08:30:36;;;;;;;1999.90;999.90;;;16.70;1.00;;;;;;5154428;27;20125;-85
2022/11/01 08:33:02;;;;;;;;;;;16.60;1.00;;;;;;5137338;27;20050;-84
2022/11/01 08:35:31;;;;;;;1999.90;999.90;;;16.60;1.00;;;;;;5154596;27;19919;-83
2022/11/01 08:37:57;;;;;;;1999.90;999.90;;;16.70;1.00;;;;;;5118929;27;20486;-83
2022/11/01 08:40:24;;;;;;;1999.90;999.90;;;16.60;1.00;;;;;;5136290;27;20499;-85
2022/11/01 08:42:50;;;;;;;1999.90;999.90;;;16.50;1.00;;;;;;5135660;27;20043;-84
2022/11/01 08:45:18;;;;;;;1999.90;999.90;;;16.40;1.00;;;;;;5154739;27;20502;-84
2022/11/01 08:47:44;;;;;;;1999.90;999.90;;;16.30;1.00;;;;;;5135879;27;20042;-85
2022/11/01 08:50:12;;;;;;;1999.90;999.90;;;15.80;33.50;;;;;;5118768;27;20047;-87
2022/11/01 08:52:39;;;;;;;1999.90;999.90;;;17.50;26.40;;;;;;5118504;27;20042;-85
2022/11/01 08:55:06;;;;;;;1999.90;999.90;;;16.10;1.00;;;;;;5118743;27;20035;-84
2022/11/01 08:57:32;;;;;;;1999.90;999.90;;;15.90;1.00;;;;;;5154800;27;20069;-87
2022/11/01 09:00:00;;;;;;;1999.90;999.90;;;16.20;57.90;;;;;;5118818;27;20375;-87
2022/11/01 09:02:26;;;;;;;1999.90;999.90;;;16.00;95.00;;;;;;5154029;27;20085;-86
2022/11/01 09:04:52;;;;;;;1999.90;999.90;;;16.10;52.90;;;;;;5117940;27;20071;-88
2022/11/01 09:07:17;;;;;;;1999.90;999.90;;;16.20;35.10;;;;;;5118732;27;20081;-88
2022/11/01 09:09:43;;;;;;;1999.90;999.90;;;16.30;7.70;;;;;;5154312;27;20034;-86
2022/11/01 09:12:11;;;;;;;1999.90;999.90;;;16.30;7.20;;;;;;5134565;27;20089;-89
2022/11/01 09:14:37;;;;;;;1999.90;999.90;;;16.30;1.00;;;;;;5135744;27;20149;-90
2022/11/01 09:17:02;;;;;;;1999.90;999.90;;;16.30;1.00;;;;;;5135970;27;20114;-89
2022/11/01 09:19:28;;;;;;;1999.90;999.90;;;16.20;3.10;;;;;;5136343;27;20043;-88
2022/11/01 09:21:54;;;;;;;1999.90;999.90;;;16.30;5.90;;;;;;5153640;27;20049;-86
2022/11/01 09:24:19;;;;;;;1999.90;999.90;;;16.40;1.00;;;;;;5135694;27;20046;-85
2022/11/01 09:26:45;;;;;;;1999.90;999.90;;;16.50;7.70;;;;;;5135945;27;20107;-86
2022/11/01 09:29:11;;;;;;;1999.90;999.90;;;16.30;24.10;;;;;;5118946;27;20387;-92
2022/11/01 09:31:37;;;;;;;1999.90;999.90;;;16.50;9.60;;;;;;5136167;27;20122;-90
2022/11/01 09:34:03;;;;;;;1999.90;999.90;;;16.60;7.80;;;;;;5153542;27;20034;-89
2022/11/01 09:36:28;;;;;;;1999.90;999.90;;;16.70;20.80;;;;;;5135287;27;20067;-89
2022/11/01 09:38:55;;;;;;;1536.65;751.88;;;16.80;1.30;;;;;;5134571;27;20119;-88
2022/11/01 09:41:41;;;;;;;1999.90;999.90;;;16.90;1.00;;;;;;5154275;27;20448;-88
2022/11/01 09:44:17;;;;;;;1999.90;999.90;;;16.90;1.00;;;;;;5118275;27;20043;-86
2022/11/01 09:46:48;;;;;;;1999.90;999.90;;;16.90;1.00;;;;;;5135197;27;20071;-88
2022/11/01 09:49:22;;;;;;;1999.90;999.90;;;16.90;1.00;;;;;;5118788;27;20043;-87
2022/11/01 09:51:48;;;;;;;1999.90;999.90;;;17.10;1.00;;;;;;5118761;27;20039;-88
2022/11/01 09:54:18;;;;;;;1999.90;999.90;;;17.10;1.00;;;;;;5136248;27;20130;-86
2022/11/01 09:56:54;;;;;;;1999.90;999.90;;;17.20;1.00;;;;;;5134725;27;20099;-89
2022/11/01 09:59:39;;;;;;;1999.90;999.90;;;17.30;1.00;;;;;;5135742;27;20050;-88
2022/11/01 10:02:33;;;;;;;1999.90;999.90;;;17.30;1.00;;;;;;5135691;27;20049;-88
2022/11/01 10:05:27;;;;;;;1999.90;999.90;;;17.30;1.00;;;;;;5117787;27;20387;-88
2022/11/01 10:08:02;;;;;;;1999.90;999.90;;;17.30;1.00;;;;;;5118850;27;20051;-89
2022/11/01 10:10:43;;;;;;;1999.90;999.90;;;17.20;1.00;;;;;;5134521;27;20501;-87
2022/11/01 10:13:21;;;;;;;1999.90;999.90;;;17.20;1.00;;;;;;5135532;27;20449;-88
2022/11/01 10:15:47;;;;;;;1999.90;999.90;;;17.00;1.00;;;;;;5134694;27;20039;-85
2022/11/01 10:18:27;;;;;;;1999.90;999.90;;;16.90;1.00;;;;;;5118131;27;20103;-86
2022/11/01 10:20:55;;;;;;;1999.90;999.90;;;17.10;1.00;;;;;;5134732;27;20042;-85
2022/11/01 10:23:35;;;;;;;1999.90;999.90;;;17.10;1.00;;;;;;5155318;27;20054;-89
2022/11/01 10:26:02;;;;;;;1999.90;999.90;;;17.10;1.00;;;;;;5122028;27;20047;-89
2022/11/01 10:28:51;;;;;;;1999.90;999.90;;;16.90;4.80;;;;;;5139344;27;20145;-92
2022/11/01 10:31:21;;;;;;;1999.90;999.90;;;17.20;1.00;;;;;;5138565;27;20042;-91
2022/11/01 10:33:59;;;;;;;1999.90;999.90;;;17.20;1.00;;;;;;5121863;27;20402;-90
2022/11/01 10:36:38;;;;;;;1999.90;999.90;;;17.20;1.00;;;;;;5138491;27;20054;-88
2022/11/01 10:39:25;;;;;;;1999.90;999.90;;;17.20;1.00;;;;;;5138295;27;20477;-88
2022/11/01 10:41:52;;;;;;;1999.90;999.90;;;17.20;1.00;;;;;;5153408;27;20386;-88
2022/11/01 10:44:37;;;;;;;1999.90;999.90;;;18.50;1.00;;;;;;5138068;27;20047;-89
2022/11/01 10:47:07;;;;;;;1999.90;999.90;;;17.00;6.80;;;;;;5156433;27;20042;-92
2022/11/01 10:49:41;;;;;;;1999.90;999.90;;;16.90;1.00;;;;;;5120654;27;20051;-89
2022/11/01 10:52:11;;;;;;;1999.90;999.90;;;16.80;1.00;;;;;;5155346;27;20111;-87
2022/11/01 10:54:42;;;;;;;1999.90;999.90;;;16.80;1.00;;;;;;5156959;27;20125;-90
2022/11/01 10:57:15;;;;;;;1999.90;999.90;;;16.80;1.00;;;;;;5137992;27;20043;-90
2022/11/01 10:59:46;;;;;;;1999.90;999.90;;;16.70;10.20;;;;;;5121280;27;20129;-93
2022/11/01 11:02:23;;;;;;;1999.90;999.90;;;16.70;1.00;;;;;;5137729;27;20058;-91
2022/11/01 11:04:49;;;;;;;1999.90;999.90;;;16.70;13.80;;;;;;5120401;27;20341;-89
2022/11/01 11:07:16;;;;;;;1999.90;999.90;;;16.80;1.00;;;;;;5138281;27;20479;-88
2022/11/01 11:09:42;;;;;;;1999.90;999.90;;;16.90;1.00;;;;;;5137967;27;20121;-88
2022/11/01 11:12:17;;;;;;;1999.90;999.90;;;16.90;1.00;;;;;;5137888;27;20074;-90
2022/11/01 11:14:46;;;;;;;1999.90;999.90;;;16.90;1.00;;;;;;5134007;27;20058;-88
2022/11/01 11:17:30;;;;;;;1999.90;999.90;;;16.80;1.00;;;;;;5134780;27;20520;-89
2022/11/01 11:20:03;;;;;;;1999.90;999.90;;;16.70;1.00;;;;;;5118009;27;20043;-91
2022/11/01 11:22:29;;;;;;;1999.90;999.90;;;16.70;5.80;;;;;;5117023;27;20046;-92
2022/11/01 11:24:57;;;;;;;1999.90;999.90;;;16.60;1.00;;;;;;5116692;27;20100;-87
2022/11/01 11:27:29;;;;;;;1999.90;999.90;;;16.60;1.00;;;;;;5117115;27;20463;-87
2022/11/01 11:29:59;;;;;;;1999.90;999.90;;;16.60;7.00;;;;;;5117136;27;20061;-89
2022/11/01 11:32:27;;;;;;;1999.90;999.90;;;16.60;10.40;;;;;;5133780;27;20111;-88
2022/11/01 11:35:12;;;;;;;1999.90;999.90;;;16.30;5.10;;;;;;5133861;27;20043;-92
2022/11/01 11:37:38;;;;;;;1999.90;999.90;;;16.50;15.90;;;;;;5133886;27;20076;-87
2022/11/01 11:40:18;;;;;;;1999.90;999.90;;;16.70;6.70;;;;;;5134922;27;20288;-89
2022/11/01 11:42:47;;;;;;;1999.90;999.90;;;16.60;8.20;;;;;;5116941;27;20054;-93
2022/11/01 11:45:30;;;;;;;1999.90;999.90;;;16.60;1.00;;;;;;5116738;27;20050;-92
2022/11/01 11:48:13;;;;;;;1591.70;758.88;;;18.30;15.90;;;;;;5133725;27;20049;-88
2022/11/01 11:50:39;;;;;;;1999.90;999.90;;;16.70;7.70;;;;;;5116827;27;20139;-91
2022/11/01 11:53:20;;;;;;;1999.90;999.90;;;16.60;23.20;;;;;;5134474;27;20088;-90
2022/11/01 11:55:55;;;;;;;1999.90;999.90;;;16.70;16.00;;;;;;5117994;27;20051;-88
2022/11/01 11:58:31;;;;;;;1999.90;999.90;;;16.60;16.70;;;;;;5134077;27;20083;-87
2022/11/01 12:01:06;;;;;;;1999.90;999.90;;;16.70;28.40;;;;;;5117219;27;20047;-86
2022/11/01 12:03:56;;;;;;;1999.90;999.90;;;16.60;47.10;;;;;;5134268;27;20051;-89
2022/11/01 12:06:27;;;;;;;1999.90;999.90;;;16.50;20.80;;;;;;5133852;27;20479;-86
2022/11/01 12:08:59;;;;;;;1999.90;999.90;;;16.60;29.60;;;;;;5117072;27;20047;-91
2022/11/01 12:11:38;;;;;;;1999.90;999.90;;;16.60;39.50;;;;;;5134149;27;20043;-93
2022/11/01 12:14:17;;;;;;;1999.90;999.90;;;16.40;59.50;;;;;;5133010;27;20491;-92
2022/11/01 12:16:43;;;;;;;1999.90;999.90;;;16.70;16.40;;;;;;5115911;27;20514;-86
2022/11/01 12:19:30;;;;;;;1999.90;999.90;;;16.90;21.30;;;;;;5134129;27;20051;-86
2022/11/01 12:22:00;;;;;;;1999.90;999.90;;;16.90;1.00;;;;;;5115891;27;20062;-86
2022/11/01 12:24:37;;;;;;;1999.90;999.90;;;16.90;1.00;;;;;;5133786;27;20292;-90
2022/11/01 12:27:09;;;;;;;1999.90;999.90;;;16.70;3.20;;;;;;5133763;27;20112;-90